createdAt,value
2019-04-21T00:00:52.269Z,22.25
2019-04-21T00:01:52.024Z,21.25
2019-04-21T00:02:59.605Z,22.00
2019-04-21T00:04:11.387Z,23.75
2019-04-21T00:05:24.982Z,23.25
2019-04-21T00:06:32.405Z,22.00
2019-04-21T00:07:32.076Z,24.00
2019-04-21T00:08:56.083Z,22.00
2019-04-21T00:09:45.611Z,21.25
2019-04-21T00:10:51.343Z,21.50
2019-04-21T00:11:59.869Z,22.50
2019-04-21T00:12:53.503Z,21.00
2019-04-21T00:13:56.378Z,21.25
2019-04-21T00:14:57.902Z,21.50
2019-04-21T00:15:57.857Z,22.00
2019-04-21T00:17:05.077Z,24.00
2019-04-21T00:18:10.949Z,24.50
2019-04-21T00:19:36.622Z,21.75
2019-04-21T00:20:44.198Z,21.00
2019-04-21T00:21:47.836Z,22.00
2019-04-21T00:22:58.815Z,24.00
2019-04-21T00:24:23.279Z,22.50
2019-04-21T00:25:32.046Z,23.25
2019-04-21T00:26:37.634Z,22.75
2019-04-21T00:27:41.322Z,21.75
2019-04-21T00:28:53.307Z,20.75
2019-04-21T00:29:51.766Z,22.75
2019-04-21T00:30:58.713Z,22.75
2019-04-21T00:31:57.966Z,24.00
2019-04-21T00:32:56.360Z,24.00
2019-04-21T00:33:53.048Z,26.00
2019-04-21T00:35:03.021Z,21.00
2019-04-21T00:36:10.225Z,23.25
2019-04-21T00:37:16.321Z,22.75
2019-04-21T00:38:32.625Z,22.75
2019-04-21T00:39:43.327Z,26.75
2019-04-21T00:40:46.395Z,22.75
2019-04-21T00:41:50.870Z,23.00
2019-04-21T00:42:50.348Z,26.00
2019-04-21T00:43:49.495Z,24.50
2019-04-21T00:45:00.823Z,23.00
2019-04-21T00:45:57.392Z,25.00
2019-04-21T00:47:05.413Z,26.00
2019-04-21T00:48:19.198Z,26.25
2019-04-21T00:49:19.535Z,26.50
2019-04-21T00:50:33.692Z,31.75
2019-04-21T00:51:42.024Z,29.50
2019-04-21T00:53:00.182Z,29.25
2019-04-21T00:54:13.329Z,29.00
2019-04-21T00:55:20.259Z,28.00
2019-04-21T00:56:15.625Z,30.00
2019-04-21T00:57:27.733Z,24.50
2019-04-21T00:58:30.171Z,25.00
2019-04-21T00:59:33.513Z,26.75
2019-04-21T01:00:35.025Z,27.00
2019-04-21T01:01:38.248Z,25.25
2019-04-21T01:02:53.322Z,28.50
2019-04-21T01:03:51.913Z,28.50
2019-04-21T01:05:00.130Z,26.25
2019-04-21T01:05:57.581Z,25.50
2019-04-21T01:07:05.548Z,28.75
2019-04-21T01:08:04.921Z,29.75
2019-04-21T01:09:10.844Z,29.00
2019-04-21T01:10:06.367Z,31.25
2019-04-21T01:11:18.862Z,35.75
2019-04-21T01:12:29.800Z,33.00
2019-04-21T01:13:33.327Z,34.50
2019-04-21T01:14:37.290Z,32.00
2019-04-21T01:15:47.427Z,29.00
2019-04-21T01:16:45.892Z,26.00
2019-04-21T01:17:46.258Z,25.00
2019-04-21T01:18:51.833Z,24.25
2019-04-21T01:19:50.701Z,23.00
2019-04-21T01:20:39.065Z,25.75
2019-04-21T01:21:42.167Z,27.25
2019-04-21T01:22:44.983Z,27.75
2019-04-21T01:23:48.624Z,27.00
2019-04-21T01:25:01.821Z,25.00
2019-04-21T01:26:13.113Z,28.50
2019-04-21T01:27:11.332Z,25.50
2019-04-21T01:28:21.472Z,29.75
2019-04-21T01:29:37.357Z,26.75
2019-04-21T01:30:34.635Z,29.75
2019-04-21T01:31:36.300Z,25.50
2019-04-21T01:32:48.122Z,28.00
2019-04-21T01:33:50.674Z,28.00
2019-04-21T01:34:58.296Z,28.00
2019-04-21T01:36:02.519Z,26.75
2019-04-21T01:36:58.693Z,24.50
2019-04-21T01:38:14.219Z,22.75
2019-04-21T01:39:22.452Z,26.00
2019-04-21T01:40:26.037Z,25.75
2019-04-21T01:41:28.155Z,24.50
2019-04-21T01:42:28.515Z,23.00
2019-04-21T01:43:27.748Z,24.00
2019-04-21T01:44:54.394Z,23.50
2019-04-21T01:45:40.051Z,25.75
2019-04-21T01:46:40.901Z,23.50
2019-04-21T01:47:46.319Z,26.00
2019-04-21T01:48:49.402Z,23.50
2019-04-21T01:49:52.369Z,25.00
2019-04-21T01:51:03.775Z,23.00
2019-04-21T01:52:18.068Z,25.75
2019-04-21T01:53:24.178Z,23.50
2019-04-21T01:54:43.224Z,22.75
2019-04-21T01:56:11.684Z,26.00
2019-04-21T01:57:52.777Z,28.75
2019-04-21T01:58:48.257Z,29.25
2019-04-21T01:59:55.272Z,26.00
2019-04-21T02:01:05.768Z,24.00
2019-04-21T02:02:19.405Z,28.75
2019-04-21T02:03:36.217Z,29.75
2019-04-21T02:04:34.718Z,24.00
2019-04-21T02:05:36.359Z,22.75
2019-04-21T02:06:36.239Z,25.25
2019-04-21T02:07:40.891Z,22.25
2019-04-21T02:08:41.833Z,25.75
2019-04-21T02:09:50.984Z,24.00
2019-04-21T02:10:56.018Z,24.00
2019-04-21T02:12:01.037Z,27.75
2019-04-21T02:13:03.213Z,34.75
2019-04-21T02:14:09.844Z,36.75
2019-04-21T02:15:36.116Z,28.75
2019-04-21T02:16:23.441Z,26.75
2019-04-21T02:17:29.224Z,28.75
2019-04-21T02:18:27.674Z,26.50
2019-04-21T02:19:31.312Z,29.00
2019-04-21T02:20:32.662Z,26.00
2019-04-21T02:21:41.034Z,26.25
2019-04-21T02:23:06.711Z,22.75
2019-04-21T02:24:01.778Z,23.00
2019-04-21T02:25:00.976Z,24.75
2019-04-21T02:26:08.137Z,24.00
2019-04-21T02:27:12.719Z,23.50
2019-04-21T02:28:22.444Z,21.50
2019-04-21T02:29:25.063Z,26.00
2019-04-21T02:30:40.055Z,26.25
2019-04-21T02:31:36.106Z,24.50
2019-04-21T02:32:44.266Z,26.50
2019-04-21T02:34:00.328Z,24.50
2019-04-21T02:36:00.566Z,24.50
2019-04-21T02:40:19.100Z,24.50
2019-04-21T02:41:12.881Z,25.00
2019-04-21T02:42:19.886Z,24.00
2019-04-21T02:43:50.121Z,22.25
2019-04-21T02:44:37.349Z,24.00
2019-04-21T02:46:50.373Z,27.00
2019-04-21T02:48:04.466Z,25.75
2019-04-21T02:48:55.501Z,26.00
2019-04-21T02:51:03.807Z,23.25
2019-04-21T02:52:14.293Z,20.25
2019-04-21T02:53:21.235Z,26.75
2019-04-21T02:55:25.583Z,28.00
2019-04-21T02:56:48.226Z,26.00
2019-04-21T02:57:39.682Z,25.50
2019-04-21T03:01:37.786Z,25.00
2019-04-21T03:02:54.723Z,26.00
2019-04-21T03:04:11.205Z,24.75
2019-04-21T03:05:42.441Z,25.75
2019-04-21T03:09:15.975Z,24.25
2019-04-21T03:11:17.401Z,22.25
2019-04-21T03:13:21.688Z,27.25
2019-04-21T03:15:29.318Z,22.75
2019-04-21T03:16:28.417Z,22.75
2019-04-21T03:17:44.063Z,26.25
2019-04-21T03:18:48.592Z,23.00
2019-04-21T03:19:55.527Z,23.50
2019-04-21T03:21:00.962Z,25.75
2019-04-21T03:21:57.328Z,23.00
2019-04-21T03:23:15.389Z,24.00
2019-04-21T03:24:12.114Z,26.25
2019-04-21T03:26:19.910Z,24.50
2019-04-21T03:27:35.619Z,23.25
2019-04-21T03:28:22.313Z,25.00
2019-04-21T03:29:39.523Z,25.25
2019-04-21T03:37:14.029Z,24.75
2019-04-21T03:39:13.739Z,26.00
2019-04-21T03:40:25.979Z,25.25
2019-04-21T03:41:18.858Z,23.25
2019-04-21T03:42:42.563Z,24.50
2019-04-21T03:43:26.808Z,26.50
2019-04-21T03:44:37.087Z,25.50
2019-04-21T03:47:46.448Z,22.75
2019-04-21T03:48:58.335Z,24.50
2019-04-21T03:50:08.558Z,23.25
2019-04-21T03:51:07.759Z,22.50
2019-04-21T03:52:11.983Z,24.50
2019-04-21T03:54:16.114Z,25.00
2019-04-21T03:57:51.745Z,27.25
2019-04-21T03:58:47.054Z,27.00
2019-04-21T03:59:50.452Z,23.00
2019-04-21T04:01:09.804Z,24.50
2019-04-21T04:02:35.023Z,23.75
2019-04-21T04:03:55.347Z,26.00
2019-04-21T04:04:52.716Z,27.75
2019-04-21T04:09:19.464Z,23.00
2019-04-21T04:10:11.779Z,24.50
2019-04-21T04:12:23.125Z,23.25
2019-04-21T04:13:37.290Z,26.75
2019-04-21T04:14:42.454Z,23.50
2019-04-21T04:16:49.456Z,23.50
2019-04-21T04:17:41.170Z,23.50
2019-04-21T04:18:52.871Z,24.00
2019-04-21T04:20:01.375Z,23.75
2019-04-21T04:21:10.181Z,25.75
2019-04-21T04:23:07.976Z,22.75
2019-04-21T04:24:34.268Z,23.50
2019-04-21T04:25:18.867Z,24.25
2019-04-21T04:28:50.163Z,24.75
2019-04-21T04:29:39.679Z,24.00
2019-04-21T04:30:45.430Z,22.25
2019-04-21T04:31:53.447Z,24.00
2019-04-21T04:33:00.581Z,28.25
2019-04-21T04:36:30.442Z,22.75
2019-04-21T04:39:48.486Z,24.50
2019-04-21T04:43:35.100Z,27.75
2019-04-21T04:44:59.722Z,26.00
2019-04-21T04:45:48.265Z,27.75
2019-04-21T04:46:55.794Z,26.75
2019-04-21T04:49:25.228Z,24.50
2019-04-21T04:50:33.158Z,22.75
2019-04-21T04:51:48.309Z,25.50
2019-04-21T04:55:46.084Z,27.75
2019-04-21T04:56:56.364Z,28.50
2019-04-21T05:01:23.078Z,23.50
2019-04-21T05:02:31.766Z,24.00
2019-04-21T05:03:41.896Z,25.50
2019-04-21T05:04:35.515Z,24.00
2019-04-21T05:05:55.725Z,26.00
2019-04-21T05:07:50.518Z,25.00
2019-04-21T05:09:04.304Z,26.00
2019-04-21T05:11:08.575Z,27.50
2019-04-21T05:13:21.306Z,31.25
2019-04-21T05:14:18.299Z,31.75
2019-04-21T05:15:19.513Z,30.75
2019-04-21T05:17:37.789Z,26.75
2019-04-21T05:18:43.842Z,28.25
2019-04-21T05:19:57.242Z,27.00
2019-04-21T05:20:53.272Z,30.25
2019-04-21T05:21:48.353Z,31.25
2019-04-21T05:22:53.080Z,30.25
2019-04-21T05:23:52.538Z,26.25
2019-04-21T05:24:55.317Z,27.75
2019-04-21T05:26:01.304Z,24.50
2019-04-21T05:27:08.614Z,26.25
2019-04-21T05:28:10.258Z,26.75
2019-04-21T05:29:15.842Z,31.25
2019-04-21T05:44:35.400Z,26.75
2019-04-21T05:45:33.463Z,27.50
2019-04-21T05:46:49.230Z,28.25
2019-04-21T05:49:15.396Z,29.75
2019-04-21T05:50:19.208Z,28.50
2019-04-21T05:51:25.850Z,26.50
2019-04-21T05:52:27.782Z,26.50
2019-04-21T05:54:03.551Z,30.25
2019-04-21T05:54:44.341Z,30.50
2019-04-21T05:56:51.630Z,29.75
2019-04-21T05:57:58.305Z,29.75
2019-04-21T05:58:58.128Z,29.75
2019-04-21T06:00:01.268Z,30.25
2019-04-21T06:02:28.951Z,31.25
2019-04-21T06:03:44.306Z,33.75
2019-04-21T06:04:56.617Z,30.00
2019-04-21T06:05:53.330Z,31.75
2019-04-21T06:06:47.684Z,31.75
2019-04-21T06:07:52.520Z,31.75
2019-04-21T06:08:58.413Z,32.50
2019-04-21T06:10:20.450Z,31.00
2019-04-21T06:11:13.128Z,32.25
2019-04-21T06:12:13.114Z,29.75
2019-04-21T06:13:28.177Z,31.75
2019-04-21T06:14:29.420Z,33.25
2019-04-21T06:15:37.118Z,31.00
2019-04-21T06:16:43.382Z,30.75
2019-04-21T06:17:47.253Z,31.00
2019-04-21T06:18:53.008Z,33.00
2019-04-21T06:19:59.141Z,31.00
2019-04-21T06:21:05.582Z,33.25
2019-04-21T06:22:10.490Z,31.00
2019-04-21T06:23:20.482Z,30.75
2019-04-21T06:24:20.530Z,30.00
2019-04-21T06:25:54.585Z,29.75
2019-04-21T06:26:52.084Z,31.00
2019-04-21T06:27:51.157Z,31.00
2019-04-21T06:28:47.235Z,31.25
2019-04-21T06:29:52.749Z,26.50
2019-04-21T06:31:00.073Z,28.25
2019-04-21T06:32:26.883Z,26.50
2019-04-21T06:32:59.012Z,29.50
2019-04-21T06:34:03.717Z,29.00
2019-04-21T06:35:58.808Z,30.75
2019-04-21T06:37:14.658Z,27.50
2019-04-21T06:38:10.443Z,27.75
2019-04-21T06:40:21.089Z,27.75
2019-04-21T06:41:26.460Z,29.50
2019-04-21T06:42:25.502Z,27.50
2019-04-21T06:43:33.313Z,26.00
2019-04-21T06:44:35.168Z,27.50
2019-04-21T06:45:44.769Z,25.75
2019-04-21T06:46:45.689Z,29.75
2019-04-21T06:47:53.983Z,29.25
2019-04-21T06:48:55.760Z,27.50
2019-04-21T06:49:53.818Z,26.50
2019-04-21T06:51:06.875Z,29.00
2019-04-21T06:52:17.867Z,31.00
2019-04-21T06:53:10.815Z,30.00
2019-04-21T06:54:16.139Z,27.50
2019-04-21T06:55:20.119Z,27.00
2019-04-21T06:56:34.765Z,26.50
2019-04-21T06:57:28.964Z,25.75
2019-04-21T06:58:31.995Z,25.50
2019-04-21T06:59:37.212Z,25.75
2019-04-21T07:00:42.447Z,25.00
2019-04-21T07:01:55.325Z,25.25
2019-04-21T07:03:01.481Z,24.25
2019-04-21T07:04:05.764Z,23.75
2019-04-21T07:05:07.557Z,26.50
2019-04-21T07:06:13.093Z,22.25
2019-04-21T07:07:18.764Z,24.00
2019-04-21T07:08:32.757Z,26.00
2019-04-21T07:09:25.448Z,23.75
2019-04-21T07:10:44.807Z,23.75
2019-04-21T07:11:33.143Z,27.25
2019-04-21T07:12:42.990Z,24.25
2019-04-21T07:18:27.618Z,24.00
2019-04-21T07:19:34.676Z,25.00
2019-04-21T07:20:36.271Z,24.25
2019-04-21T07:21:45.764Z,23.50
2019-04-21T07:22:50.902Z,25.50
2019-04-21T07:23:53.550Z,23.50
2019-04-21T07:24:58.922Z,24.00
2019-04-21T07:26:03.177Z,23.50
2019-04-21T07:27:08.831Z,24.00
2019-04-21T07:28:15.498Z,23.75
2019-04-21T07:29:25.797Z,23.75
2019-04-21T07:30:25.624Z,24.75
2019-04-21T07:31:33.142Z,23.75
2019-04-21T07:32:36.466Z,22.50
2019-04-21T07:33:53.799Z,21.50
2019-04-21T07:34:44.851Z,21.75
2019-04-21T07:35:46.086Z,21.00
2019-04-21T07:36:54.843Z,22.00
2019-04-21T07:38:01.296Z,21.75
2019-04-21T07:40:01.892Z,23.50
2019-04-21T07:41:02.151Z,20.50
2019-04-21T07:42:13.514Z,21.75
2019-04-21T07:43:10.773Z,19.25
2019-04-21T07:44:18.178Z,20.75
2019-04-21T07:45:22.713Z,20.00
2019-04-21T07:46:28.933Z,20.00
2019-04-21T07:47:50.703Z,20.00
2019-04-21T07:49:01.644Z,21.00
2019-04-21T07:50:14.933Z,21.00
2019-04-21T07:51:32.253Z,20.00
2019-04-21T07:53:05.218Z,17.75
2019-04-21T07:54:01.824Z,19.75
2019-04-21T07:55:22.067Z,22.50
2019-04-21T07:55:51.128Z,22.50
2019-04-21T07:57:11.601Z,19.25
2019-04-21T07:58:14.810Z,20.25
2019-04-21T07:59:31.537Z,18.75
2019-04-21T08:01:30.720Z,19.00
2019-04-21T08:02:38.621Z,18.25
2019-04-21T08:03:50.103Z,20.00
2019-04-21T08:05:09.579Z,21.00
2019-04-21T08:05:54.788Z,21.00
2019-04-21T08:07:15.032Z,18.75
2019-04-21T08:07:56.085Z,19.00
2019-04-21T08:09:07.382Z,19.25
2019-04-21T08:10:10.472Z,20.00
2019-04-21T08:11:09.600Z,19.00
2019-04-21T08:12:16.024Z,18.00
2019-04-21T08:13:28.868Z,19.00
2019-04-21T08:14:28.654Z,18.00
2019-04-21T08:15:33.989Z,19.00
2019-04-21T08:16:36.766Z,19.75
2019-04-21T08:17:43.349Z,18.75
2019-04-21T08:18:45.509Z,17.75
2019-04-21T08:19:48.766Z,18.75
2019-04-21T08:20:54.482Z,19.25
2019-04-21T08:22:09.567Z,18.00
2019-04-21T08:23:07.066Z,18.25
2019-04-21T08:24:08.826Z,15.75
2019-04-21T08:25:14.874Z,16.75
2019-04-21T08:26:22.947Z,18.00
2019-04-21T08:27:32.097Z,17.50
2019-04-21T08:28:35.569Z,16.75
2019-04-21T08:29:44.085Z,18.25
2019-04-21T08:30:36.501Z,15.75
2019-04-21T08:31:58.714Z,16.00
2019-04-21T08:33:10.663Z,16.00
2019-04-21T08:35:23.932Z,15.00
2019-04-21T08:36:17.810Z,15.75
2019-04-21T08:37:15.058Z,13.25
2019-04-21T08:38:21.896Z,15.75
2019-04-21T08:39:31.516Z,14.50
2019-04-21T08:40:36.823Z,14.00
2019-04-21T08:41:40.772Z,17.75
2019-04-21T08:42:49.088Z,14.75
2019-04-21T08:44:03.839Z,15.75
2019-04-21T08:44:54.378Z,15.00
2019-04-21T08:46:03.587Z,16.00
2019-04-21T08:47:07.487Z,15.00
2019-04-21T08:48:10.580Z,16.75
2019-04-21T08:49:15.629Z,17.00
2019-04-21T08:50:20.505Z,15.00
2019-04-21T08:51:33.103Z,14.50
2019-04-21T08:52:42.913Z,16.75
2019-04-21T08:53:42.891Z,14.75
2019-04-21T08:54:53.624Z,16.75
2019-04-21T08:56:13.116Z,16.50
2019-04-21T08:57:48.786Z,14.50
2019-04-21T08:59:28.878Z,14.50
2019-04-21T09:00:51.395Z,14.00
2019-04-21T09:01:57.227Z,16.00
2019-04-21T09:03:06.431Z,16.00
2019-04-21T09:04:16.613Z,15.00
2019-04-21T09:05:17.509Z,15.25
2019-04-21T09:06:31.709Z,14.75
2019-04-21T09:07:32.179Z,15.25
2019-04-21T09:08:31.672Z,16.00
2019-04-21T09:09:41.637Z,13.00
2019-04-21T09:10:48.530Z,13.75
2019-04-21T09:11:54.076Z,16.00
2019-04-21T09:12:51.785Z,14.50
2019-04-21T09:14:05.213Z,15.25
2019-04-21T09:15:09.919Z,17.00
2019-04-21T09:16:06.302Z,15.75
2019-04-21T09:17:06.573Z,16.75
2019-04-21T09:18:13.356Z,15.50
2019-04-21T09:19:33.964Z,15.50
2019-04-21T09:20:33.778Z,15.00
2019-04-21T09:21:39.420Z,15.00
2019-04-21T09:22:44.269Z,13.75
2019-04-21T09:25:25.344Z,14.25
2019-04-21T09:26:27.096Z,16.50
2019-04-21T09:27:29.463Z,15.00
2019-04-21T09:28:25.535Z,15.75
2019-04-21T09:29:26.446Z,15.00
2019-04-21T09:30:23.980Z,15.00
2019-04-21T09:31:35.452Z,16.00
2019-04-21T09:32:36.663Z,15.00
2019-04-21T09:33:45.407Z,15.00
2019-04-21T09:34:49.277Z,15.50
2019-04-21T09:36:01.030Z,14.00
2019-04-21T09:37:15.356Z,14.50
2019-04-21T09:38:16.198Z,15.00
2019-04-21T09:39:16.143Z,14.75
2019-04-21T09:40:20.474Z,14.00
2019-04-21T09:41:24.099Z,14.00
2019-04-21T09:42:34.552Z,15.50
2019-04-21T09:43:39.524Z,14.50
2019-04-21T09:44:38.601Z,13.25
2019-04-21T09:45:40.718Z,13.00
2019-04-21T09:46:50.567Z,15.75
2019-04-21T09:48:00.876Z,16.00
2019-04-21T09:49:03.780Z,14.75
2019-04-21T09:50:10.295Z,16.25
2019-04-21T09:51:13.483Z,14.75
2019-04-21T09:52:20.943Z,14.75
2019-04-21T09:53:29.429Z,12.75
2019-04-21T09:54:31.299Z,12.25
2019-04-21T09:55:43.971Z,14.00
2019-04-21T09:56:52.393Z,15.00
2019-04-21T09:57:53.373Z,13.50
2019-04-21T09:58:58.121Z,14.25
2019-04-21T10:00:06.724Z,14.50
2019-04-21T10:01:15.665Z,13.75
2019-04-21T10:02:18.197Z,14.00
2019-04-21T10:03:19.082Z,16.50
2019-04-21T10:04:21.558Z,15.25
2019-04-21T10:05:25.236Z,13.25
2019-04-21T10:06:28.479Z,15.00
2019-04-21T10:07:38.276Z,15.50
2019-04-21T10:08:40.289Z,17.00
2019-04-21T10:09:43.602Z,12.50
2019-04-21T10:10:46.899Z,14.00
2019-04-21T10:11:50.475Z,16.50
2019-04-21T10:12:56.421Z,15.00
2019-04-21T10:13:59.315Z,14.25
2019-04-21T10:15:02.303Z,13.75
2019-04-21T10:16:24.200Z,14.75
2019-04-21T10:17:34.769Z,13.75
2019-04-21T10:18:37.986Z,16.50
2019-04-21T10:19:41.876Z,13.75
2019-04-21T10:20:44.907Z,13.00
2019-04-21T10:21:52.067Z,13.50
2019-04-21T10:23:00.544Z,12.75
2019-04-21T10:24:06.279Z,14.00
2019-04-21T10:25:12.602Z,12.75
2019-04-21T10:26:16.499Z,12.75
2019-04-21T10:27:19.577Z,13.50
2019-04-21T10:28:23.311Z,12.00
2019-04-21T10:29:31.247Z,13.50
2019-04-21T10:42:46.361Z,13.00
2019-04-21T10:43:49.376Z,13.75
2019-04-21T10:44:54.876Z,13.25
2019-04-21T10:45:58.931Z,15.00
2019-04-21T10:47:02.624Z,13.75
2019-04-21T10:48:07.217Z,12.25
2019-04-21T10:49:19.476Z,13.00
2019-04-21T10:50:22.641Z,11.75
2019-04-21T10:51:25.603Z,12.75
2019-04-21T10:52:47.236Z,14.00
2019-04-21T10:53:53.928Z,12.00
2019-04-21T10:55:20.881Z,11.25
2019-04-21T10:56:13.604Z,12.75
2019-04-21T10:57:12.679Z,14.00
2019-04-21T10:58:22.676Z,12.25
2019-04-21T10:59:26.803Z,13.00
2019-04-21T11:00:32.310Z,13.75
2019-04-21T11:01:35.321Z,13.00
2019-04-21T11:02:52.837Z,12.00
2019-04-21T11:04:21.818Z,10.25
2019-04-21T11:05:20.798Z,12.00
2019-04-21T11:06:24.487Z,12.00
2019-04-21T11:07:58.941Z,12.00
2019-04-21T11:08:55.434Z,12.75
2019-04-21T11:09:56.058Z,13.25
2019-04-21T11:11:06.013Z,12.50
2019-04-21T11:12:13.546Z,12.50
2019-04-21T11:13:16.643Z,12.00
2019-04-21T11:14:21.018Z,15.00
2019-04-21T11:15:29.478Z,12.75
2019-04-21T11:16:37.211Z,12.25
2019-04-21T11:17:45.543Z,12.50
2019-04-21T11:18:48.235Z,14.75
2019-04-21T11:19:54.837Z,13.00
2019-04-21T11:20:58.813Z,13.00
2019-04-21T11:22:02.871Z,15.00
2019-04-21T11:23:06.209Z,13.00
2019-04-21T11:24:10.248Z,14.00
2019-04-21T11:25:13.527Z,13.50
2019-04-21T11:26:17.678Z,15.50
2019-04-21T11:27:20.870Z,12.50
2019-04-21T11:28:24.836Z,13.25
2019-04-21T11:29:28.590Z,15.00
2019-04-21T11:30:33.658Z,13.25
2019-04-21T11:31:38.965Z,14.75
2019-04-21T11:32:49.435Z,14.75
2019-04-21T11:33:57.417Z,14.00
2019-04-21T11:35:01.205Z,13.50
2019-04-21T11:36:07.159Z,13.00
2019-04-21T11:37:19.930Z,13.50
2019-04-21T11:38:30.495Z,12.50
2019-04-21T11:39:46.027Z,15.75
2019-04-21T11:40:43.421Z,14.75
2019-04-21T11:41:49.842Z,13.75
2019-04-21T11:42:57.645Z,13.75
2019-04-21T11:44:01.430Z,13.75
2019-04-21T11:45:06.184Z,13.50
2019-04-21T11:46:09.049Z,13.00
2019-04-21T11:47:20.533Z,12.25
2019-04-21T11:48:28.480Z,12.75
2019-04-21T11:49:32.549Z,12.75
2019-04-21T11:50:35.542Z,13.75
2019-04-21T11:51:44.983Z,13.25
2019-04-21T11:52:50.275Z,12.50
2019-04-21T11:53:56.879Z,13.00
2019-04-21T11:55:00.551Z,12.00
2019-04-21T11:56:04.853Z,13.00
2019-04-21T11:57:14.077Z,14.50
2019-04-21T11:58:12.229Z,12.25
2019-04-21T11:59:15.535Z,11.00
2019-04-21T12:00:21.790Z,13.00
2019-04-21T12:01:29.748Z,11.25
2019-04-21T12:02:33.268Z,14.00
2019-04-21T12:03:37.646Z,14.00
2019-04-21T12:04:41.258Z,13.25
2019-04-21T12:05:45.540Z,13.25
2019-04-21T12:06:55.595Z,13.25
2019-04-21T12:07:58.450Z,13.00
2019-04-21T12:09:04.583Z,12.50
2019-04-21T12:10:07.024Z,14.25
2019-04-21T12:11:09.909Z,14.25
2019-04-21T12:12:12.739Z,12.75
2019-04-21T12:13:24.437Z,12.25
2019-04-21T12:14:27.989Z,12.00
2019-04-21T12:15:31.470Z,14.00
2019-04-21T12:16:35.106Z,14.00
2019-04-21T12:17:41.798Z,12.25
2019-04-21T12:18:45.138Z,13.00
2019-04-21T12:19:48.561Z,14.00
2019-04-21T12:20:51.691Z,13.00
2019-04-21T12:22:07.130Z,13.50
2019-04-21T12:23:04.994Z,14.25
2019-04-21T12:24:19.434Z,13.25
2019-04-21T12:25:23.000Z,13.00
2019-04-21T12:26:26.393Z,14.75
2019-04-21T12:27:31.894Z,14.25
2019-04-21T12:28:38.109Z,14.00
2019-04-21T12:29:46.100Z,13.25
2019-04-21T12:30:55.795Z,14.00
2019-04-21T12:32:18.043Z,14.00
2019-04-21T12:33:40.244Z,14.00
2019-04-21T12:34:43.794Z,14.00
2019-04-21T12:35:48.065Z,13.00
2019-04-21T12:36:51.098Z,12.25
2019-04-21T12:37:58.500Z,13.00
2019-04-21T12:39:06.763Z,14.00
2019-04-21T12:40:12.591Z,13.75
2019-04-21T12:41:15.968Z,14.00
2019-04-21T12:42:24.842Z,14.75
2019-04-21T12:43:30.598Z,14.00
2019-04-21T12:44:33.601Z,13.00
2019-04-21T12:45:37.868Z,13.00
2019-04-21T12:46:41.171Z,14.00
2019-04-21T12:47:50.667Z,14.25
2019-04-21T12:48:56.230Z,13.25
2019-04-21T12:50:05.079Z,14.00
2019-04-21T12:51:03.933Z,13.00
2019-04-21T12:52:09.354Z,13.25
2019-04-21T12:53:27.683Z,16.25
2019-04-21T12:54:30.628Z,13.50
2019-04-21T12:55:42.470Z,14.00
2019-04-21T12:56:41.767Z,14.25
2019-04-21T12:57:45.467Z,14.00
2019-04-21T12:58:55.315Z,16.00
2019-04-21T13:00:02.788Z,13.50
2019-04-21T13:01:07.143Z,13.00
2019-04-21T13:02:15.830Z,13.00
2019-04-21T13:03:24.833Z,12.25
2019-04-21T13:04:33.333Z,14.00
2019-04-21T13:05:40.006Z,14.00
2019-04-21T13:06:43.547Z,14.00
2019-04-21T13:07:49.353Z,14.50
2019-04-21T13:09:01.375Z,16.25
2019-04-21T13:10:02.321Z,16.25
2019-04-21T13:11:06.821Z,16.00
2019-04-21T13:12:11.101Z,14.25
2019-04-21T13:13:20.067Z,14.00
2019-04-21T13:14:26.032Z,14.50
2019-04-21T13:15:27.512Z,13.00
2019-04-21T13:16:31.569Z,14.00
2019-04-21T13:17:37.264Z,13.75
2019-04-21T13:18:42.609Z,14.00
2019-04-21T13:19:47.352Z,13.00
2019-04-21T13:20:50.191Z,14.75
2019-04-21T13:21:54.017Z,12.75
2019-04-21T13:22:59.960Z,12.25
2019-04-21T13:24:05.620Z,13.75
2019-04-21T13:25:09.603Z,14.00
2019-04-21T13:26:15.090Z,13.50
2019-04-21T13:27:20.540Z,15.50
2019-04-21T13:28:24.832Z,13.75
2019-04-21T13:29:28.180Z,12.75
2019-04-21T13:30:32.643Z,14.25
2019-04-21T13:31:42.579Z,11.00
2019-04-21T13:32:45.203Z,15.00
2019-04-21T13:33:48.179Z,14.75
2019-04-21T13:34:52.765Z,12.75
2019-04-21T13:35:57.232Z,13.75
2019-04-21T13:37:03.516Z,14.75
2019-04-21T13:38:18.807Z,12.25
2019-04-21T13:41:05.376Z,12.75
2019-04-21T13:42:06.652Z,12.00
2019-04-21T13:43:05.801Z,12.75
2019-04-21T13:44:13.313Z,14.75
2019-04-21T13:45:16.437Z,14.50
2019-04-21T13:46:20.679Z,13.75
2019-04-21T13:47:24.831Z,13.25
2019-04-21T13:48:28.648Z,12.00
2019-04-21T13:49:32.257Z,13.00
2019-04-21T13:50:37.664Z,11.25
2019-04-21T13:51:41.654Z,12.00
2019-04-21T13:52:44.913Z,11.75
2019-04-21T13:53:49.667Z,14.25
2019-04-21T13:54:55.904Z,11.50
2019-04-21T13:56:00.556Z,11.00
2019-04-21T13:57:04.904Z,12.50
2019-04-21T13:58:08.536Z,12.00
2019-04-21T13:59:11.560Z,13.00
2019-04-21T14:00:15.155Z,13.00
2019-04-21T14:01:21.349Z,13.25
2019-04-21T14:02:34.490Z,13.75
2019-04-21T14:03:37.745Z,12.75
2019-04-21T14:04:41.208Z,12.50
2019-04-21T14:05:44.812Z,12.50
2019-04-21T14:06:50.168Z,12.00
2019-04-21T14:07:56.480Z,12.50
2019-04-21T14:09:03.141Z,13.50
2019-04-21T14:10:09.935Z,12.00
2019-04-21T14:11:11.388Z,13.25
2019-04-21T14:12:19.361Z,13.00
2019-04-21T14:13:24.712Z,13.50
2019-04-21T14:14:28.369Z,14.50
2019-04-21T14:15:32.429Z,12.75
2019-04-21T14:16:36.115Z,14.00
2019-04-21T14:17:39.261Z,14.00
2019-04-21T14:18:45.498Z,11.50
2019-04-21T14:19:48.987Z,13.00
2019-04-21T14:21:03.175Z,13.00
2019-04-21T14:22:14.147Z,13.00
2019-04-21T14:23:28.554Z,13.50
2019-04-21T14:24:25.183Z,12.00
2019-04-21T14:25:28.257Z,12.50
2019-04-21T14:26:32.147Z,13.00
2019-04-21T14:27:36.559Z,12.00
2019-04-21T14:28:41.381Z,13.00
2019-04-21T14:29:46.969Z,12.50
2019-04-21T14:30:54.369Z,12.00
2019-04-21T14:31:58.076Z,12.00
2019-04-21T14:33:02.242Z,12.50
2019-04-21T14:34:12.139Z,11.50
2019-04-21T14:35:14.797Z,12.25
2019-04-21T14:36:18.875Z,12.00
2019-04-21T14:37:22.682Z,13.75
2019-04-21T14:38:30.400Z,13.00
2019-04-21T14:39:48.445Z,15.75
2019-04-21T14:40:46.247Z,12.50
2019-04-21T14:41:52.138Z,13.00
2019-04-21T14:42:56.177Z,13.50
2019-04-21T14:44:01.095Z,11.50
2019-04-21T14:45:05.048Z,12.50
2019-04-21T14:46:31.190Z,11.50
2019-04-21T14:48:01.035Z,12.25
2019-04-21T14:49:37.363Z,12.25
2019-04-21T14:50:54.598Z,13.75
2019-04-21T14:52:21.184Z,12.75
2019-04-21T14:53:23.999Z,13.00
2019-04-21T14:54:48.948Z,12.00
2019-04-21T14:55:53.181Z,11.25
2019-04-21T14:56:57.664Z,12.00
2019-04-21T14:58:03.305Z,11.00
2019-04-21T14:59:07.254Z,12.00
2019-04-21T15:00:11.161Z,12.75
2019-04-21T15:01:15.661Z,12.25
2019-04-21T15:02:25.471Z,13.75
2019-04-21T15:03:29.810Z,9.50
2019-04-21T15:04:35.596Z,12.00
2019-04-21T15:05:39.782Z,9.75
2019-04-21T15:06:43.289Z,12.25
2019-04-21T15:07:46.297Z,13.50
2019-04-21T15:08:51.085Z,11.75
2019-04-21T15:10:04.419Z,11.75
2019-04-21T15:10:59.141Z,11.75
2019-04-21T15:12:03.120Z,11.00
2019-04-21T15:13:06.035Z,11.50
2019-04-21T15:14:08.990Z,11.50
2019-04-21T15:15:12.269Z,9.75
2019-04-21T15:16:15.535Z,11.50
2019-04-21T15:17:20.704Z,11.75
2019-04-21T15:18:23.250Z,10.75
2019-04-21T15:19:26.645Z,13.50
2019-04-21T15:20:30.894Z,11.50
2019-04-21T15:21:35.438Z,11.50
2019-04-21T15:22:38.796Z,12.75
2019-04-21T15:23:42.422Z,12.00
2019-04-21T15:24:45.507Z,12.00
2019-04-21T15:25:48.466Z,11.50
2019-04-21T15:26:52.990Z,12.75
2019-04-21T15:27:56.906Z,13.00
2019-04-21T15:29:00.483Z,12.00
2019-04-21T15:30:06.962Z,12.75
2019-04-21T15:31:15.193Z,12.50
2019-04-21T15:32:15.187Z,13.00
2019-04-21T15:33:39.186Z,11.75
2019-04-21T15:34:42.501Z,13.00
2019-04-21T15:35:51.289Z,13.25
2019-04-21T15:36:55.544Z,12.75
2019-04-21T15:37:59.918Z,13.00
2019-04-21T15:39:05.629Z,12.50
2019-04-21T15:40:18.151Z,12.50
2019-04-21T15:41:14.468Z,11.00
2019-04-21T15:42:18.662Z,11.50
2019-04-21T15:43:26.506Z,12.00
2019-04-21T15:44:27.669Z,11.50
2019-04-21T15:45:32.629Z,12.00
2019-04-21T15:46:35.343Z,12.00
2019-04-21T15:47:38.319Z,13.25
2019-04-21T15:48:44.761Z,12.75
2019-04-21T15:50:03.610Z,11.75
2019-04-21T15:51:03.605Z,11.00